McNair Village, Texas
Current Conditions -  °F | °C
As of 4:56 AM on Tuesday 21 Oct 2014 (Local Time) from KHLR Reporting Station
Clear Clear  
Wind Chill: 16°   Ceiling: Unl
Heat Index: 16°   Visibility: 10mi
Dew Point: 14°   Wind: 0mph
Humidity: 87%   Direction: NA
Pressure: 30.05"   Gusts: NA
Location:  31.2151°N, 97.7405°W
Report Text: KHLR 210956Z 00000KT 10SM CLR 16/14 A3005 RMK AO2 SLPNO T01610139 $
Loading
Personal Weather Stations






























Interactive Weather Map
Tropical Storm Tracking
New forecast layout! Learn more

10-Day Weather Forecast

Advertisements
Track Severe Weather on mobile